sensor_id;sensor_type;location;lat;lon;timestamp;temperature;humidity
52471;DHT22;38382;53.160;7.026;2023-11-21T00:00:18;8.60;99.90
52471;DHT22;38382;53.160;7.026;2023-11-21T00:02:44;8.60;99.90
52471;DHT22;38382;53.160;7.026;2023-11-21T00:05:12;8.70;99.90
52471;DHT22;38382;53.160;7.026;2023-11-21T00:07:39;8.80;99.90
52471;DHT22;38382;53.160;7.026;2023-11-21T00:10:06;8.60;99.90
52471;DHT22;38382;53.160;7.026;2023-11-21T00:12:34;8.60;99.90
52471;DHT22;38382;53.160;7.026;2023-11-21T00:14:59;8.60;99.90
52471;DHT22;38382;53.160;7.026;2023-11-21T00:17:25;8.60;99.90
52471;DHT22;38382;53.160;7.026;2023-11-21T00:19:51;8.60;99.90
52471;DHT22;38382;53.160;7.026;2023-11-21T00:22:20;8.60;99.90
52471;DHT22;38382;53.160;7.026;2023-11-21T00:24:46;8.60;99.90
52471;DHT22;38382;53.160;7.026;2023-11-21T00:27:12;8.50;99.90
52471;DHT22;38382;53.160;7.026;2023-11-21T00:29:37;8.50;99.90
52471;DHT22;38382;53.160;7.026;2023-11-21T00:32:05;8.40;99.90
52471;DHT22;38382;53.160;7.026;2023-11-21T00:34:31;8.40;99.90
52471;DHT22;38382;53.160;7.026;2023-11-21T00:36:57;8.40;99.90
52471;DHT22;38382;53.160;7.026;2023-11-21T00:39:23;8.50;99.90
52471;DHT22;38382;53.160;7.026;2023-11-21T00:41:49;8.40;99.90
52471;DHT22;38382;53.160;7.026;2023-11-21T00:44:15;8.40;99.90
52471;DHT22;38382;53.160;7.026;2023-11-21T00:46:41;8.40;99.90
52471;DHT22;38382;53.160;7.026;2023-11-21T00:49:07;8.40;99.90
52471;DHT22;38382;53.160;7.026;2023-11-21T00:51:33;8.40;99.90
52471;DHT22;38382;53.160;7.026;2023-11-21T00:53:59;8.40;99.90
52471;DHT22;38382;53.160;7.026;2023-11-21T00:56:25;8.40;99.90
52471;DHT22;38382;53.160;7.026;2023-11-21T00:58:51;8.40;99.90
52471;DHT22;38382;53.160;7.026;2023-11-21T01:01:18;8.40;99.90
52471;DHT22;38382;53.160;7.026;2023-11-21T01:03:46;8.40;99.90
52471;DHT22;38382;53.160;7.026;2023-11-21T01:06:12;8.40;99.90
52471;DHT22;38382;53.160;7.026;2023-11-21T01:08:37;8.40;99.90
52471;DHT22;38382;53.160;7.026;2023-11-21T01:11:03;8.50;99.90
52471;DHT22;38382;53.160;7.026;2023-11-21T01:13:30;8.50;99.90
52471;DHT22;38382;53.160;7.026;2023-11-21T01:15:56;8.50;99.90
52471;DHT22;38382;53.160;7.026;2023-11-21T01:18:22;8.50;99.90
52471;DHT22;38382;53.160;7.026;2023-11-21T01:20:48;8.50;99.90
52471;DHT22;38382;53.160;7.026;2023-11-21T01:23:14;8.50;99.90
52471;DHT22;38382;53.160;7.026;2023-11-21T01:25:39;8.50;99.90
52471;DHT22;38382;53.160;7.026;2023-11-21T01:28:05;8.60;99.90
52471;DHT22;38382;53.160;7.026;2023-11-21T01:30:31;8.60;99.90
52471;DHT22;38382;53.160;7.026;2023-11-21T01:32:59;8.50;99.90
52471;DHT22;38382;53.160;7.026;2023-11-21T01:35:25;8.50;99.90
52471;DHT22;38382;53.160;7.026;2023-11-21T01:37:51;8.60;99.90
52471;DHT22;38382;53.160;7.026;2023-11-21T01:40:16;8.50;99.90
52471;DHT22;38382;53.160;7.026;2023-11-21T01:42:43;8.50;99.90
52471;DHT22;38382;53.160;7.026;2023-11-21T01:45:10;8.70;99.90
52471;DHT22;38382;53.160;7.026;2023-11-21T01:47:36;8.60;99.90
52471;DHT22;38382;53.160;7.026;2023-11-21T01:50:03;8.60;99.90
52471;DHT22;38382;53.160;7.026;2023-11-21T01:52:32;8.60;99.90
52471;DHT22;38382;53.160;7.026;2023-11-21T01:54:59;8.60;99.90
52471;DHT22;38382;53.160;7.026;2023-11-21T01:57:25;8.60;99.90
52471;DHT22;38382;53.160;7.026;2023-11-21T01:59:54;8.60;99.90
52471;DHT22;38382;53.160;7.026;2023-11-21T02:02:20;8.60;99.90
52471;DHT22;38382;53.160;7.026;2023-11-21T02:04:46;8.70;99.90
52471;DHT22;38382;53.160;7.026;2023-11-21T02:07:12;8.50;99.90
52471;DHT22;38382;53.160;7.026;2023-11-21T02:09:37;8.60;99.90
52471;DHT22;38382;53.160;7.026;2023-11-21T02:12:04;8.70;99.90
52471;DHT22;38382;53.160;7.026;2023-11-21T02:14:31;8.60;99.90
52471;DHT22;38382;53.160;7.026;2023-11-21T02:16:57;8.70;99.90
52471;DHT22;38382;53.160;7.026;2023-11-21T02:19:23;8.60;99.90
52471;DHT22;38382;53.160;7.026;2023-11-21T02:21:52;8.60;99.90
52471;DHT22;38382;53.160;7.026;2023-11-21T02:24:22;8.60;99.90
52471;DHT22;38382;53.160;7.026;2023-11-21T02:26:48;9.00;99.90
52471;DHT22;38382;53.160;7.026;2023-11-21T02:29:17;8.60;99.90
52471;DHT22;38382;53.160;7.026;2023-11-21T02:31:45;8.60;99.90
52471;DHT22;38382;53.160;7.026;2023-11-21T02:34:14;8.70;99.90
52471;DHT22;38382;53.160;7.026;2023-11-21T02:36:40;8.70;99.90
52471;DHT22;38382;53.160;7.026;2023-11-21T02:39:08;8.70;99.90
52471;DHT22;38382;53.160;7.026;2023-11-21T02:41:34;8.60;99.90
52471;DHT22;38382;53.160;7.026;2023-11-21T02:44:00;8.60;99.90
52471;DHT22;38382;53.160;7.026;2023-11-21T02:46:26;8.60;99.90
52471;DHT22;38382;53.160;7.026;2023-11-21T02:48:52;8.60;99.90
52471;DHT22;38382;53.160;7.026;2023-11-21T02:51:21;8.70;99.90
52471;DHT22;38382;53.160;7.026;2023-11-21T02:53:48;8.70;99.90
52471;DHT22;38382;53.160;7.026;2023-11-21T02:56:14;8.70;99.90
52471;DHT22;38382;53.160;7.026;2023-11-21T02:58:43;8.70;99.90
52471;DHT22;38382;53.160;7.026;2023-11-21T03:01:10;8.70;99.90
52471;DHT22;38382;53.160;7.026;2023-11-21T03:03:37;8.60;99.90
52471;DHT22;38382;53.160;7.026;2023-11-21T03:06:08;8.70;99.90
52471;DHT22;38382;53.160;7.026;2023-11-21T03:08:34;8.70;99.90
52471;DHT22;38382;53.160;7.026;2023-11-21T03:11:01;8.70;99.90
52471;DHT22;38382;53.160;7.026;2023-11-21T03:13:28;8.70;99.90
52471;DHT22;38382;53.160;7.026;2023-11-21T03:15:54;8.70;99.90
52471;DHT22;38382;53.160;7.026;2023-11-21T03:18:21;8.70;99.90
52471;DHT22;38382;53.160;7.026;2023-11-21T03:20:48;8.70;99.90
52471;DHT22;38382;53.160;7.026;2023-11-21T03:23:14;8.70;99.90
52471;DHT22;38382;53.160;7.026;2023-11-21T03:25:40;8.80;99.90
52471;DHT22;38382;53.160;7.026;2023-11-21T03:28:06;8.70;99.90
52471;DHT22;38382;53.160;7.026;2023-11-21T03:30:34;8.70;99.90
52471;DHT22;38382;53.160;7.026;2023-11-21T03:32:59;8.70;99.90
52471;DHT22;38382;53.160;7.026;2023-11-21T03:35:25;8.80;99.90
52471;DHT22;38382;53.160;7.026;2023-11-21T03:37:51;8.70;99.90
52471;DHT22;38382;53.160;7.026;2023-11-21T03:40:17;8.80;99.90
52471;DHT22;38382;53.160;7.026;2023-11-21T03:42:43;8.80;99.90
52471;DHT22;38382;53.160;7.026;2023-11-21T03:45:09;8.80;99.90
52471;DHT22;38382;53.160;7.026;2023-11-21T03:47:35;8.70;99.90
52471;DHT22;38382;53.160;7.026;2023-11-21T03:50:00;8.80;99.90
52471;DHT22;38382;53.160;7.026;2023-11-21T03:52:26;8.80;99.90
52471;DHT22;38382;53.160;7.026;2023-11-21T03:54:54;8.80;99.90
52471;DHT22;38382;53.160;7.026;2023-11-21T03:57:21;8.80;99.90
52471;DHT22;38382;53.160;7.026;2023-11-21T03:59:46;8.70;99.90
52471;DHT22;38382;53.160;7.026;2023-11-21T04:02:12;8.80;99.90
52471;DHT22;38382;53.160;7.026;2023-11-21T04:04:38;8.80;99.90
52471;DHT22;38382;53.160;7.026;2023-11-21T04:07:04;8.80;99.90
52471;DHT22;38382;53.160;7.026;2023-11-21T04:09:30;8.80;99.90
52471;DHT22;38382;53.160;7.026;2023-11-21T04:11:56;8.80;99.90
52471;DHT22;38382;53.160;7.026;2023-11-21T04:14:22;8.80;99.90
52471;DHT22;38382;53.160;7.026;2023-11-21T04:16:48;8.80;99.90
52471;DHT22;38382;53.160;7.026;2023-11-21T04:19:14;8.80;99.90
52471;DHT22;38382;53.160;7.026;2023-11-21T04:21:41;8.90;99.90
52471;DHT22;38382;53.160;7.026;2023-11-21T04:24:07;8.70;99.90
52471;DHT22;38382;53.160;7.026;2023-11-21T04:26:33;8.70;99.90
52471;DHT22;38382;53.160;7.026;2023-11-21T04:28:58;8.80;99.90
52471;DHT22;38382;53.160;7.026;2023-11-21T04:31:24;8.80;99.90
52471;DHT22;38382;53.160;7.026;2023-11-21T04:33:50;8.80;99.90
52471;DHT22;38382;53.160;7.026;2023-11-21T04:36:16;8.80;99.90
52471;DHT22;38382;53.160;7.026;2023-11-21T04:38:42;8.80;99.90
52471;DHT22;38382;53.160;7.026;2023-11-21T04:41:08;8.80;99.90
52471;DHT22;38382;53.160;7.026;2023-11-21T04:43:33;8.90;99.90
52471;DHT22;38382;53.160;7.026;2023-11-21T04:45:59;8.80;99.90
52471;DHT22;38382;53.160;7.026;2023-11-21T04:48:25;8.80;99.90
52471;DHT22;38382;53.160;7.026;2023-11-21T04:50:51;8.90;99.90
52471;DHT22;38382;53.160;7.026;2023-11-21T04:53:17;8.80;99.90
52471;DHT22;38382;53.160;7.026;2023-11-21T04:55:43;8.80;99.90
52471;DHT22;38382;53.160;7.026;2023-11-21T04:58:10;9.20;99.90
52471;DHT22;38382;53.160;7.026;2023-11-21T05:00:36;8.80;99.90
52471;DHT22;38382;53.160;7.026;2023-11-21T05:03:03;8.80;99.90
52471;DHT22;38382;53.160;7.026;2023-11-21T05:05:29;8.90;99.90
52471;DHT22;38382;53.160;7.026;2023-11-21T05:07:58;8.80;99.90
52471;DHT22;38382;53.160;7.026;2023-11-21T05:10:23;8.80;99.90
52471;DHT22;38382;53.160;7.026;2023-11-21T05:12:49;8.80;99.90
52471;DHT22;38382;53.160;7.026;2023-11-21T05:15:17;8.80;99.90
52471;DHT22;38382;53.160;7.026;2023-11-21T05:17:44;8.80;99.90
52471;DHT22;38382;53.160;7.026;2023-11-21T05:20:11;8.80;99.90
52471;DHT22;38382;53.160;7.026;2023-11-21T05:22:39;8.80;99.90
52471;DHT22;38382;53.160;7.026;2023-11-21T05:25:05;8.80;99.90
52471;DHT22;38382;53.160;7.026;2023-11-21T05:27:32;8.80;99.90
52471;DHT22;38382;53.160;7.026;2023-11-21T05:29:59;8.80;99.90
52471;DHT22;38382;53.160;7.026;2023-11-21T05:32:25;8.80;99.90
52471;DHT22;38382;53.160;7.026;2023-11-21T05:34:52;8.70;99.90
52471;DHT22;38382;53.160;7.026;2023-11-21T05:37:18;8.80;99.90
52471;DHT22;38382;53.160;7.026;2023-11-21T05:39:43;8.90;99.90
52471;DHT22;38382;53.160;7.026;2023-11-21T05:42:09;8.80;99.90
52471;DHT22;38382;53.160;7.026;2023-11-21T05:44:37;8.90;99.90
52471;DHT22;38382;53.160;7.026;2023-11-21T05:47:03;8.80;99.90
52471;DHT22;38382;53.160;7.026;2023-11-21T05:49:29;8.80;99.90
52471;DHT22;38382;53.160;7.026;2023-11-21T05:51:56;8.80;99.90
52471;DHT22;38382;53.160;7.026;2023-11-21T05:54:22;8.90;99.90
52471;DHT22;38382;53.160;7.026;2023-11-21T05:56:49;8.80;99.90
52471;DHT22;38382;53.160;7.026;2023-11-21T05:59:15;8.80;99.90
52471;DHT22;38382;53.160;7.026;2023-11-21T06:01:40;8.80;99.90
52471;DHT22;38382;53.160;7.026;2023-11-21T06:04:06;8.80;99.90
52471;DHT22;38382;53.160;7.026;2023-11-21T06:06:35;8.80;99.90
52471;DHT22;38382;53.160;7.026;2023-11-21T06:09:01;8.80;99.90
52471;DHT22;38382;53.160;7.026;2023-11-21T06:11:27;8.70;99.90
52471;DHT22;38382;53.160;7.026;2023-11-21T06:13:53;8.80;99.90
52471;DHT22;38382;53.160;7.026;2023-11-21T06:16:21;8.80;99.90
52471;DHT22;38382;53.160;7.026;2023-11-21T06:18:47;8.80;99.90
52471;DHT22;38382;53.160;7.026;2023-11-21T06:21:12;8.70;99.90
52471;DHT22;38382;53.160;7.026;2023-11-21T06:23:39;8.70;99.90
52471;DHT22;38382;53.160;7.026;2023-11-21T06:26:05;8.70;99.90
52471;DHT22;38382;53.160;7.026;2023-11-21T06:28:32;8.70;99.90
52471;DHT22;38382;53.160;7.026;2023-11-21T06:30:57;8.60;99.90
52471;DHT22;38382;53.160;7.026;2023-11-21T06:33:24;8.80;99.90
52471;DHT22;38382;53.160;7.026;2023-11-21T06:35:51;8.60;99.90
52471;DHT22;38382;53.160;7.026;2023-11-21T06:38:16;8.60;99.90
52471;DHT22;38382;53.160;7.026;2023-11-21T06:40:43;8.60;99.90
52471;DHT22;38382;53.160;7.026;2023-11-21T06:43:09;8.50;99.90
52471;DHT22;38382;53.160;7.026;2023-11-21T06:45:35;8.60;99.90
52471;DHT22;38382;53.160;7.026;2023-11-21T06:48:01;8.60;99.90
52471;DHT22;38382;53.160;7.026;2023-11-21T06:50:27;8.60;99.90
52471;DHT22;38382;53.160;7.026;2023-11-21T06:52:52;8.60;99.90
52471;DHT22;38382;53.160;7.026;2023-11-21T06:55:18;8.50;99.90
52471;DHT22;38382;53.160;7.026;2023-11-21T06:57:44;8.60;99.90
52471;DHT22;38382;53.160;7.026;2023-11-21T07:00:10;8.50;99.90
52471;DHT22;38382;53.160;7.026;2023-11-21T07:02:37;8.50;99.90
52471;DHT22;38382;53.160;7.026;2023-11-21T07:05:03;8.50;99.90
52471;DHT22;38382;53.160;7.026;2023-11-21T07:07:28;8.50;99.90
52471;DHT22;38382;53.160;7.026;2023-11-21T07:09:54;8.40;99.90
52471;DHT22;38382;53.160;7.026;2023-11-21T07:12:20;8.60;99.90
52471;DHT22;38382;53.160;7.026;2023-11-21T07:14:49;8.50;99.90
52471;DHT22;38382;53.160;7.026;2023-11-21T07:17:15;8.40;99.90
52471;DHT22;38382;53.160;7.026;2023-11-21T07:19:42;8.40;99.90
52471;DHT22;38382;53.160;7.026;2023-11-21T07:22:08;8.40;99.90
52471;DHT22;38382;53.160;7.026;2023-11-21T07:24:34;8.40;99.90
52471;DHT22;38382;53.160;7.026;2023-11-21T07:27:00;8.40;99.90
52471;DHT22;38382;53.160;7.026;2023-11-21T07:29:26;8.30;99.90
52471;DHT22;38382;53.160;7.026;2023-11-21T07:31:55;8.40;99.90
52471;DHT22;38382;53.160;7.026;2023-11-21T07:34:21;8.30;99.90
52471;DHT22;38382;53.160;7.026;2023-11-21T07:36:47;8.30;99.90
52471;DHT22;38382;53.160;7.026;2023-11-21T07:39:13;8.30;99.90
52471;DHT22;38382;53.160;7.026;2023-11-21T07:41:41;8.30;99.90
52471;DHT22;38382;53.160;7.026;2023-11-21T07:44:15;8.40;99.90
52471;DHT22;38382;53.160;7.026;2023-11-21T07:46:41;8.30;99.90
52471;DHT22;38382;53.160;7.026;2023-11-21T07:49:07;8.40;99.90
52471;DHT22;38382;53.160;7.026;2023-11-21T07:51:33;8.30;99.90
52471;DHT22;38382;53.160;7.026;2023-11-21T07:53:59;8.50;99.90
52471;DHT22;38382;53.160;7.026;2023-11-21T07:56:24;8.30;99.90
52471;DHT22;38382;53.160;7.026;2023-11-21T07:58:50;8.40;99.90
52471;DHT22;38382;53.160;7.026;2023-11-21T08:01:16;8.40;99.90
52471;DHT22;38382;53.160;7.026;2023-11-21T08:03:41;8.30;99.90
52471;DHT22;38382;53.160;7.026;2023-11-21T08:06:07;8.40;99.90
52471;DHT22;38382;53.160;7.026;2023-11-21T08:08:33;8.30;99.90
52471;DHT22;38382;53.160;7.026;2023-11-21T08:10:59;8.40;99.90
52471;DHT22;38382;53.160;7.026;2023-11-21T08:13:28;8.40;99.90
52471;DHT22;38382;53.160;7.026;2023-11-21T08:15:54;8.40;99.90
52471;DHT22;38382;53.160;7.026;2023-11-21T08:18:20;8.40;99.90
52471;DHT22;38382;53.160;7.026;2023-11-21T08:20:45;8.40;99.90
52471;DHT22;38382;53.160;7.026;2023-11-21T08:23:16;8.40;99.90
52471;DHT22;38382;53.160;7.026;2023-11-21T08:25:46;8.40;99.90
52471;DHT22;38382;53.160;7.026;2023-11-21T08:28:12;8.50;99.90
52471;DHT22;38382;53.160;7.026;2023-11-21T08:30:42;8.50;99.90
52471;DHT22;38382;53.160;7.026;2023-11-21T08:33:08;8.40;99.90
52471;DHT22;38382;53.160;7.026;2023-11-21T08:35:34;8.50;99.90
52471;DHT22;38382;53.160;7.026;2023-11-21T08:38:00;8.50;99.90
52471;DHT22;38382;53.160;7.026;2023-11-21T08:40:26;8.40;99.90
52471;DHT22;38382;53.160;7.026;2023-11-21T08:42:52;8.60;99.90
52471;DHT22;38382;53.160;7.026;2023-11-21T08:45:19;8.50;99.90
52471;DHT22;38382;53.160;7.026;2023-11-21T08:47:45;8.50;99.90
52471;DHT22;38382;53.160;7.026;2023-11-21T08:50:11;8.60;99.90
52471;DHT22;38382;53.160;7.026;2023-11-21T08:52:42;8.60;99.90
52471;DHT22;38382;53.160;7.026;2023-11-21T08:55:08;8.90;99.90
52471;DHT22;38382;53.160;7.026;2023-11-21T08:57:38;8.60;99.90
52471;DHT22;38382;53.160;7.026;2023-11-21T09:00:07;8.60;99.90
52471;DHT22;38382;53.160;7.026;2023-11-21T09:02:50;8.60;99.90
52471;DHT22;38382;53.160;7.026;2023-11-21T09:05:16;8.70;99.90
52471;DHT22;38382;53.160;7.026;2023-11-21T09:07:43;8.60;99.90
52471;DHT22;38382;53.160;7.026;2023-11-21T09:10:13;8.70;99.90
52471;DHT22;38382;53.160;7.026;2023-11-21T09:12:39;8.70;99.90
52471;DHT22;38382;53.160;7.026;2023-11-21T09:15:05;8.70;99.90
52471;DHT22;38382;53.160;7.026;2023-11-21T09:17:35;8.60;99.90
52471;DHT22;38382;53.160;7.026;2023-11-21T09:20:01;8.60;99.90
52471;DHT22;38382;53.160;7.026;2023-11-21T09:22:28;8.70;99.90
52471;DHT22;38382;53.160;7.026;2023-11-21T09:24:55;8.70;99.90
52471;DHT22;38382;53.160;7.026;2023-11-21T09:27:23;8.70;99.90
52471;DHT22;38382;53.160;7.026;2023-11-21T09:29:49;8.70;99.90
52471;DHT22;38382;53.160;7.026;2023-11-21T09:32:15;8.60;99.90
52471;DHT22;38382;53.160;7.026;2023-11-21T09:34:42;8.70;99.90
52471;DHT22;38382;53.160;7.026;2023-11-21T09:37:08;8.60;99.90
52471;DHT22;38382;53.160;7.026;2023-11-21T09:39:34;8.70;99.90
52471;DHT22;38382;53.160;7.026;2023-11-21T09:42:10;8.70;99.90
52471;DHT22;38382;53.160;7.026;2023-11-21T09:47:09;8.80;99.90
52471;DHT22;38382;53.160;7.026;2023-11-21T09:49:37;8.80;99.90
52471;DHT22;38382;53.160;7.026;2023-11-21T09:52:04;8.80;99.90
52471;DHT22;38382;53.160;7.026;2023-11-21T09:54:32;8.90;99.90
52471;DHT22;38382;53.160;7.026;2023-11-21T09:56:59;8.90;99.90
52471;DHT22;38382;53.160;7.026;2023-11-21T09:59:30;8.80;99.90
52471;DHT22;38382;53.160;7.026;2023-11-21T10:01:57;8.90;99.90
52471;DHT22;38382;53.160;7.026;2023-11-21T10:04:24;8.90;99.90
52471;DHT22;38382;53.160;7.026;2023-11-21T10:06:53;8.90;99.90
52471;DHT22;38382;53.160;7.026;2023-11-21T10:09:19;9.00;99.90
52471;DHT22;38382;53.160;7.026;2023-11-21T10:11:47;9.10;99.90
52471;DHT22;38382;53.160;7.026;2023-11-21T10:14:16;9.10;99.90
52471;DHT22;38382;53.160;7.026;2023-11-21T10:16:45;9.10;99.90
52471;DHT22;38382;53.160;7.026;2023-11-21T10:19:13;9.20;99.90
52471;DHT22;38382;53.160;7.026;2023-11-21T10:21:39;9.20;99.90
52471;DHT22;38382;53.160;7.026;2023-11-21T10:24:05;9.20;99.90
52471;DHT22;38382;53.160;7.026;2023-11-21T10:26:32;9.20;99.90
52471;DHT22;38382;53.160;7.026;2023-11-21T10:28:59;9.40;99.90
52471;DHT22;38382;53.160;7.026;2023-11-21T10:31:30;9.50;99.90
52471;DHT22;38382;53.160;7.026;2023-11-21T10:34:15;9.70;99.90
52471;DHT22;38382;53.160;7.026;2023-11-21T10:36:41;9.90;99.90
52471;DHT22;38382;53.160;7.026;2023-11-21T10:39:08;10.00;99.90
52471;DHT22;38382;53.160;7.026;2023-11-21T10:41:35;10.00;99.90
52471;DHT22;38382;53.160;7.026;2023-11-21T10:44:02;10.00;99.90
52471;DHT22;38382;53.160;7.026;2023-11-21T10:46:33;9.90;99.90
52471;DHT22;38382;53.160;7.026;2023-11-21T10:49:00;9.80;99.90
52471;DHT22;38382;53.160;7.026;2023-11-21T10:51:26;9.80;99.90
52471;DHT22;38382;53.160;7.026;2023-11-21T10:53:52;9.70;99.90
52471;DHT22;38382;53.160;7.026;2023-11-21T10:56:18;9.70;99.90
52471;DHT22;38382;53.160;7.026;2023-11-21T10:58:48;9.60;99.90
52471;DHT22;38382;53.160;7.026;2023-11-21T11:01:17;9.60;99.90
52471;DHT22;38382;53.160;7.026;2023-11-21T11:03:44;9.60;99.90
52471;DHT22;38382;53.160;7.026;2023-11-21T11:06:10;9.60;99.90
52471;DHT22;38382;53.160;7.026;2023-11-21T11:08:38;9.60;99.90
52471;DHT22;38382;53.160;7.026;2023-11-21T11:11:09;9.60;99.90
52471;DHT22;38382;53.160;7.026;2023-11-21T11:13:36;9.70;99.90
52471;DHT22;38382;53.160;7.026;2023-11-21T11:16:03;9.70;99.90
52471;DHT22;38382;53.160;7.026;2023-11-21T11:18:33;9.80;99.90
52471;DHT22;38382;53.160;7.026;2023-11-21T11:27:05;10.00;99.90
52471;DHT22;38382;53.160;7.026;2023-11-21T11:29:50;10.10;99.90
52471;DHT22;38382;53.160;7.026;2023-11-21T11:32:40;10.10;99.90
52471;DHT22;38382;53.160;7.026;2023-11-21T11:35:37;10.10;99.90
52471;DHT22;38382;53.160;7.026;2023-11-21T11:38:04;10.20;99.90
52471;DHT22;38382;53.160;7.026;2023-11-21T11:40:45;10.20;99.90
52471;DHT22;38382;53.160;7.026;2023-11-21T11:43:11;10.10;99.90
52471;DHT22;38382;53.160;7.026;2023-11-21T11:45:38;10.00;99.90
52471;DHT22;38382;53.160;7.026;2023-11-21T11:48:07;10.00;99.90
52471;DHT22;38382;53.160;7.026;2023-11-21T11:50:33;10.00;99.90
52471;DHT22;38382;53.160;7.026;2023-11-21T11:53:15;10.00;99.90
52471;DHT22;38382;53.160;7.026;2023-11-21T11:55:41;10.00;99.90
52471;DHT22;38382;53.160;7.026;2023-11-21T11:58:07;10.00;99.90
52471;DHT22;38382;53.160;7.026;2023-11-21T12:00:33;9.90;99.90
52471;DHT22;38382;53.160;7.026;2023-11-21T12:03:03;10.00;99.90
52471;DHT22;38382;53.160;7.026;2023-11-21T12:05:34;10.00;99.90
52471;DHT22;38382;53.160;7.026;2023-11-21T12:08:11;10.00;99.90
52471;DHT22;38382;53.160;7.026;2023-11-21T12:10:40;10.00;99.90
52471;DHT22;38382;53.160;7.026;2023-11-21T12:13:10;10.00;99.90
52471;DHT22;38382;53.160;7.026;2023-11-21T12:15:37;10.10;99.90
52471;DHT22;38382;53.160;7.026;2023-11-21T12:18:04;10.10;99.90
52471;DHT22;38382;53.160;7.026;2023-11-21T12:20:31;10.20;99.90
52471;DHT22;38382;53.160;7.026;2023-11-21T12:22:59;10.20;99.90
52471;DHT22;38382;53.160;7.026;2023-11-21T12:25:27;10.30;99.90
52471;DHT22;38382;53.160;7.026;2023-11-21T12:28:00;10.40;99.90
52471;DHT22;38382;53.160;7.026;2023-11-21T12:30:27;10.50;99.90
52471;DHT22;38382;53.160;7.026;2023-11-21T12:32:57;10.50;99.90
52471;DHT22;38382;53.160;7.026;2023-11-21T12:35:28;10.50;99.90
52471;DHT22;38382;53.160;7.026;2023-11-21T12:37:57;10.50;99.90
52471;DHT22;38382;53.160;7.026;2023-11-21T12:40:24;10.50;99.90
52471;DHT22;38382;53.160;7.026;2023-11-21T12:42:59;10.50;99.90
52471;DHT22;38382;53.160;7.026;2023-11-21T12:45:27;10.50;99.90
52471;DHT22;38382;53.160;7.026;2023-11-21T12:48:05;10.50;99.90
52471;DHT22;38382;53.160;7.026;2023-11-21T12:50:35;10.50;99.90
52471;DHT22;38382;53.160;7.026;2023-11-21T12:53:12;10.40;99.90
52471;DHT22;38382;53.160;7.026;2023-11-21T12:55:38;10.20;99.90
52471;DHT22;38382;53.160;7.026;2023-11-21T12:58:06;10.20;99.90
52471;DHT22;38382;53.160;7.026;2023-11-21T13:00:45;10.00;99.90
52471;DHT22;38382;53.160;7.026;2023-11-21T13:03:12;10.00;99.90
52471;DHT22;38382;53.160;7.026;2023-11-21T13:05:41;9.90;99.90
52471;DHT22;38382;53.160;7.026;2023-11-21T13:08:11;9.80;99.90
52471;DHT22;38382;53.160;7.026;2023-11-21T13:10:45;9.70;99.90
52471;DHT22;38382;53.160;7.026;2023-11-21T13:13:13;9.60;99.90
52471;DHT22;38382;53.160;7.026;2023-11-21T13:15:50;9.50;99.90
52471;DHT22;38382;53.160;7.026;2023-11-21T13:18:17;9.20;99.90
52471;DHT22;38382;53.160;7.026;2023-11-21T13:20:44;9.40;99.90
52471;DHT22;38382;53.160;7.026;2023-11-21T13:23:10;9.30;99.90
52471;DHT22;38382;53.160;7.026;2023-11-21T13:25:42;9.30;99.90
52471;DHT22;38382;53.160;7.026;2023-11-21T13:28:08;9.20;99.90
52471;DHT22;38382;53.160;7.026;2023-11-21T13:30:35;9.20;99.90
52471;DHT22;38382;53.160;7.026;2023-11-21T13:33:02;9.20;99.90
52471;DHT22;38382;53.160;7.026;2023-11-21T13:35:28;9.10;99.90
52471;DHT22;38382;53.160;7.026;2023-11-21T13:38:11;9.10;99.90
52471;DHT22;38382;53.160;7.026;2023-11-21T13:40:39;9.10;99.90
52471;DHT22;38382;53.160;7.026;2023-11-21T13:43:13;9.20;99.90
52471;DHT22;38382;53.160;7.026;2023-11-21T13:45:43;9.20;99.90
52471;DHT22;38382;53.160;7.026;2023-11-21T13:48:10;9.10;99.90
52471;DHT22;38382;53.160;7.026;2023-11-21T13:50:37;9.10;99.90
52471;DHT22;38382;53.160;7.026;2023-11-21T13:53:03;9.00;99.90
52471;DHT22;38382;53.160;7.026;2023-11-21T13:55:44;9.00;99.90
52471;DHT22;38382;53.160;7.026;2023-11-21T13:58:11;9.00;99.90
52471;DHT22;38382;53.160;7.026;2023-11-21T14:00:43;8.90;99.90
52471;DHT22;38382;53.160;7.026;2023-11-21T14:03:12;8.90;99.90
52471;DHT22;38382;53.160;7.026;2023-11-21T14:05:48;8.90;99.90
52471;DHT22;38382;53.160;7.026;2023-11-21T14:08:25;8.90;99.90
52471;DHT22;38382;53.160;7.026;2023-11-21T14:10:57;8.80;99.90
52471;DHT22;38382;53.160;7.026;2023-11-21T14:13:28;8.80;99.90
52471;DHT22;38382;53.160;7.026;2023-11-21T14:15:54;8.80;99.90
52471;DHT22;38382;53.160;7.026;2023-11-21T14:18:24;8.80;99.90
52471;DHT22;38382;53.160;7.026;2023-11-21T14:20:56;8.70;99.90
52471;DHT22;38382;53.160;7.026;2023-11-21T14:23:21;8.70;99.90
52471;DHT22;38382;53.160;7.026;2023-11-21T14:25:49;8.70;99.90
52471;DHT22;38382;53.160;7.026;2023-11-21T14:28:16;8.60;99.90
52471;DHT22;38382;53.160;7.026;2023-11-21T14:30:42;8.60;99.90
52471;DHT22;38382;53.160;7.026;2023-11-21T14:33:08;8.60;99.90
52471;DHT22;38382;53.160;7.026;2023-11-21T14:35:35;8.60;99.90
52471;DHT22;38382;53.160;7.026;2023-11-21T14:38:02;8.60;99.90
52471;DHT22;38382;53.160;7.026;2023-11-21T14:40:33;8.50;99.90
52471;DHT22;38382;53.160;7.026;2023-11-21T14:43:01;8.50;99.90
52471;DHT22;38382;53.160;7.026;2023-11-21T14:45:29;8.40;99.90
52471;DHT22;38382;53.160;7.026;2023-11-21T14:47:55;8.40;99.90
52471;DHT22;38382;53.160;7.026;2023-11-21T14:50:39;8.40;99.90
52471;DHT22;38382;53.160;7.026;2023-11-21T14:53:08;8.40;99.90
52471;DHT22;38382;53.160;7.026;2023-11-21T14:55:35;8.40;99.90
52471;DHT22;38382;53.160;7.026;2023-11-21T14:58:17;8.30;99.90
52471;DHT22;38382;53.160;7.026;2023-11-21T15:04:43;8.20;99.90
52471;DHT22;38382;53.160;7.026;2023-11-21T15:07:10;8.20;99.90
52471;DHT22;38382;53.160;7.026;2023-11-21T15:09:39;9.20;99.90
52471;DHT22;38382;53.160;7.026;2023-11-21T15:12:08;8.10;99.90
52471;DHT22;38382;53.160;7.026;2023-11-21T15:14:50;8.10;99.90
52471;DHT22;38382;53.160;7.026;2023-11-21T15:17:21;8.10;99.90
52471;DHT22;38382;53.160;7.026;2023-11-21T15:19:54;8.10;99.90
52471;DHT22;38382;53.160;7.026;2023-11-21T15:22:20;8.00;99.90
52471;DHT22;38382;53.160;7.026;2023-11-21T15:24:46;8.00;99.90
52471;DHT22;38382;53.160;7.026;2023-11-21T15:27:15;7.90;99.90
52471;DHT22;38382;53.160;7.026;2023-11-21T15:29:41;7.80;99.90
52471;DHT22;38382;53.160;7.026;2023-11-21T15:32:08;7.80;99.90
52471;DHT22;38382;53.160;7.026;2023-11-21T15:34:35;7.70;99.90
52471;DHT22;38382;53.160;7.026;2023-11-21T15:37:02;7.70;99.90
52471;DHT22;38382;53.160;7.026;2023-11-21T15:39:29;7.60;99.90
52471;DHT22;38382;53.160;7.026;2023-11-21T15:41:56;7.60;99.90
52471;DHT22;38382;53.160;7.026;2023-11-21T15:44:22;7.50;99.90
52471;DHT22;38382;53.160;7.026;2023-11-21T15:46:50;7.40;99.90
52471;DHT22;38382;53.160;7.026;2023-11-21T15:49:17;7.30;99.90
52471;DHT22;38382;53.160;7.026;2023-11-21T15:51:47;7.30;99.90
52471;DHT22;38382;53.160;7.026;2023-11-21T15:54:21;7.20;99.90
52471;DHT22;38382;53.160;7.026;2023-11-21T15:56:51;7.10;99.90
52471;DHT22;38382;53.160;7.026;2023-11-21T15:59:18;7.10;99.90